createdAt,value
2023-02-06T00:00:10.066Z,70.57
2023-02-06T00:02:37.909Z,70.46
2023-02-06T00:05:04.830Z,70.28
2023-02-06T00:07:31.335Z,70.21
2023-02-06T00:09:57.919Z,70.10
2023-02-06T00:12:24.389Z,70.41
2023-02-06T00:14:50.891Z,70.42
2023-02-06T00:17:17.370Z,70.20
2023-02-06T00:19:45.202Z,70.31
2023-02-06T00:22:11.749Z,70.01
2023-02-06T00:24:38.285Z,70.37
2023-02-06T00:27:04.772Z,71.04
2023-02-06T00:29:31.225Z,71.69
2023-02-06T00:31:57.845Z,72.33
2023-02-06T00:34:24.777Z,72.10
2023-02-06T00:36:52.735Z,72.08
2023-02-06T00:39:19.570Z,72.45
2023-02-06T00:41:46.187Z,72.74
2023-02-06T00:44:12.684Z,73.00
2023-02-06T00:46:39.223Z,73.01
2023-02-06T00:49:05.767Z,73.05
2023-02-06T00:51:32.249Z,73.83
2023-02-06T00:54:00.296Z,74.00
2023-02-06T00:56:26.756Z,73.88
2023-02-06T00:58:53.287Z,74.26
2023-02-06T01:01:19.875Z,74.18
2023-02-06T01:03:46.390Z,73.89
2023-02-06T01:06:13.096Z,74.34
2023-02-06T01:08:39.612Z,74.01
2023-02-06T01:11:11.405Z,74.69
2023-02-06T01:13:38.595Z,74.85
2023-02-06T01:16:09.973Z,74.88
2023-02-06T01:18:36.810Z,74.30
2023-02-06T01:21:08.332Z,73.49
2023-02-06T01:23:34.842Z,73.75
2023-02-06T01:26:04.948Z,73.74
2023-02-06T01:28:35.071Z,74.66
2023-02-06T01:31:01.884Z,74.91
2023-02-06T01:33:29.378Z,74.58
2023-02-06T01:35:56.335Z,75.24
2023-02-06T01:38:22.790Z,74.74
2023-02-06T01:40:49.285Z,74.90
2023-02-06T01:43:18.394Z,74.79
2023-02-06T01:45:46.900Z,75.09
2023-02-06T01:48:17.357Z,74.75
2023-02-06T01:50:47.925Z,75.05
2023-02-06T01:53:16.322Z,75.01
2023-02-06T01:55:45.653Z,74.98
2023-02-06T01:58:16.313Z,74.84
2023-02-06T02:00:42.976Z,75.04
2023-02-06T02:03:11.596Z,75.06
2023-02-06T02:05:40.186Z,75.17
2023-02-06T02:08:12.036Z,76.02
2023-02-06T02:10:39.060Z,75.25
2023-02-06T02:13:05.847Z,75.34
2023-02-06T02:15:41.176Z,75.81
2023-02-06T02:18:25.536Z,76.45
2023-02-06T02:21:24.592Z,75.79
2023-02-06T02:23:57.283Z,75.42
2023-02-06T02:27:10.668Z,74.84
2023-02-06T02:30:04.099Z,75.14
2023-02-06T02:32:57.216Z,74.61
2023-02-06T02:35:29.651Z,74.57
2023-02-06T02:38:06.996Z,74.46
2023-02-06T02:40:43.248Z,74.53
2023-02-06T02:43:18.174Z,75.07
2023-02-06T02:45:50.049Z,75.11
2023-02-06T02:48:21.861Z,75.09
2023-02-06T02:50:51.123Z,75.62
2023-02-06T02:53:17.596Z,75.85
2023-02-06T02:55:44.315Z,75.86
2023-02-06T02:58:14.653Z,74.74
2023-02-06T03:00:44.620Z,74.85
2023-02-06T03:03:14.522Z,74.99
2023-02-06T03:05:51.617Z,75.72
2023-02-06T03:08:28.344Z,75.57
2023-02-06T03:11:09.560Z,76.12
2023-02-06T03:13:42.568Z,75.25
2023-02-06T03:16:15.226Z,75.73
2023-02-06T03:18:46.163Z,76.12
2023-02-06T03:21:17.860Z,75.29
2023-02-06T03:23:48.877Z,76.26
2023-02-06T03:26:20.466Z,76.59
2023-02-06T03:28:49.672Z,76.03
2023-02-06T03:31:20.426Z,75.64
2023-02-06T03:33:51.471Z,76.22
2023-02-06T03:36:18.770Z,76.26
2023-02-06T03:38:49.377Z,77.42
2023-02-06T03:41:23.240Z,77.74
2023-02-06T03:43:51.990Z,77.44
2023-02-06T03:46:18.945Z,77.37
2023-02-06T03:48:50.009Z,76.90
2023-02-06T03:51:21.568Z,76.37
2023-02-06T03:53:52.746Z,76.84
2023-02-06T03:56:25.348Z,77.11
2023-02-06T03:58:51.900Z,77.80
2023-02-06T04:01:18.958Z,77.94
2023-02-06T04:03:46.007Z,77.59
2023-02-06T04:06:12.534Z,76.55
2023-02-06T04:08:39.036Z,76.95
2023-02-06T04:11:06.882Z,76.75
2023-02-06T04:13:33.772Z,76.06
2023-02-06T04:16:01.186Z,76.35
2023-02-06T04:18:27.740Z,76.57
2023-02-06T04:20:54.235Z,76.99
2023-02-06T04:23:21.364Z,76.57
2023-02-06T04:25:48.077Z,75.66
2023-02-06T04:28:15.952Z,75.64
2023-02-06T04:30:42.617Z,75.44
2023-02-06T04:33:09.235Z,75.64
2023-02-06T04:35:35.896Z,77.95
2023-02-06T04:38:02.689Z,78.95
2023-02-06T04:40:29.202Z,78.38
2023-02-06T04:42:55.674Z,78.42
2023-02-06T04:45:23.715Z,77.20
2023-02-06T04:47:50.235Z,76.39
2023-02-06T04:50:17.194Z,76.57
2023-02-06T04:52:44.037Z,76.92
2023-02-06T04:55:10.580Z,76.31
2023-02-06T04:57:37.672Z,76.09
2023-02-06T05:00:06.452Z,75.68
2023-02-06T05:02:34.410Z,75.69
2023-02-06T05:05:00.981Z,75.28
2023-02-06T05:07:27.439Z,75.40
2023-02-06T05:09:54.019Z,75.93
2023-02-06T05:12:20.526Z,75.33
2023-02-06T05:14:47.226Z,75.12
2023-02-06T05:17:13.790Z,74.89
2023-02-06T05:19:42.124Z,74.64
2023-02-06T05:22:08.803Z,74.82
2023-02-06T05:24:35.295Z,74.96
2023-02-06T05:27:02.088Z,74.99
2023-02-06T05:29:28.604Z,74.37
2023-02-06T05:31:55.214Z,74.10
2023-02-06T05:34:21.964Z,74.59
2023-02-06T05:36:49.855Z,74.11
2023-02-06T05:39:16.863Z,73.35
2023-02-06T05:41:43.473Z,72.84
2023-02-06T05:44:10.035Z,72.79
2023-02-06T05:46:36.926Z,73.43
2023-02-06T05:49:03.618Z,73.13
2023-02-06T05:51:30.331Z,73.02
2023-02-06T05:53:58.172Z,73.06
2023-02-06T05:56:24.681Z,73.04
2023-02-06T05:58:51.265Z,73.93
2023-02-06T06:01:17.775Z,74.11
2023-02-06T06:03:44.642Z,73.76
2023-02-06T06:06:11.442Z,73.87
2023-02-06T06:08:41.772Z,74.43
2023-02-06T06:11:09.655Z,74.66
2023-02-06T06:13:36.130Z,75.16
2023-02-06T06:16:07.892Z,75.40
2023-02-06T06:18:36.362Z,76.09
2023-02-06T06:21:08.240Z,76.08
2023-02-06T06:23:34.848Z,75.41
2023-02-06T06:26:02.546Z,75.15
2023-02-06T06:28:30.404Z,74.50
2023-02-06T06:31:01.937Z,74.82
2023-02-06T06:33:28.747Z,75.08
2023-02-06T06:35:55.354Z,75.32
2023-02-06T06:38:21.977Z,75.60
2023-02-06T06:40:48.542Z,75.36
2023-02-06T06:43:15.082Z,75.18
2023-02-06T06:45:42.953Z,75.42
2023-02-06T06:48:09.509Z,75.92
2023-02-06T06:50:36.178Z,75.09
2023-02-06T06:53:02.774Z,75.10
2023-02-06T06:55:29.353Z,75.06
2023-02-06T06:57:55.945Z,75.46
2023-02-06T07:00:24.515Z,75.53
2023-02-06T07:02:53.002Z,74.84
2023-02-06T07:05:19.651Z,74.50
2023-02-06T07:07:49.374Z,74.30
2023-02-06T07:10:16.620Z,74.14
2023-02-06T07:12:43.216Z,73.86
2023-02-06T07:15:10.566Z,73.49
2023-02-06T07:17:37.160Z,73.38
2023-02-06T07:20:06.167Z,73.22
2023-02-06T07:22:32.716Z,73.13
2023-02-06T07:24:59.442Z,72.71
2023-02-06T07:27:25.961Z,72.90
2023-02-06T07:29:52.526Z,72.93
2023-02-06T07:32:19.327Z,72.45
2023-02-06T07:34:45.907Z,72.15
2023-02-06T07:37:13.800Z,70.92
2023-02-06T07:43:15.215Z,69.62
2023-02-06T07:45:41.696Z,69.22
2023-02-06T07:48:08.943Z,69.19
2023-02-06T07:50:35.503Z,68.83
2023-02-06T07:53:03.445Z,68.27
2023-02-06T07:55:30.184Z,68.08
2023-02-06T07:57:56.724Z,67.67
2023-02-06T08:00:23.323Z,67.56
2023-02-06T08:02:49.883Z,67.54
2023-02-06T08:05:16.543Z,67.18
2023-02-06T08:07:56.096Z,67.55
2023-02-06T08:10:24.676Z,67.42
2023-02-06T08:12:51.230Z,67.00
2023-02-06T08:15:18.048Z,67.09
2023-02-06T08:17:44.623Z,66.68
2023-02-06T08:20:12.364Z,66.45
2023-02-06T08:22:39.230Z,66.43
2023-02-06T08:25:06.666Z,66.09
2023-02-06T08:27:34.673Z,65.85
2023-02-06T08:30:01.204Z,66.35
2023-02-06T08:32:33.294Z,66.19
2023-02-06T08:34:59.830Z,66.08
2023-02-06T08:37:26.610Z,65.66
2023-02-06T08:39:53.234Z,65.54
2023-02-06T08:42:19.822Z,65.76
2023-02-06T08:44:47.785Z,65.82
2023-02-06T08:47:16.457Z,66.19
2023-02-06T08:49:42.999Z,66.20
2023-02-06T08:52:09.560Z,65.97
2023-02-06T08:54:38.677Z,65.82
2023-02-06T08:57:05.758Z,65.57
2023-02-06T08:59:32.391Z,65.18
2023-02-06T09:02:00.301Z,65.02
2023-02-06T09:04:30.081Z,64.22
2023-02-06T09:06:56.579Z,63.96
2023-02-06T09:09:23.355Z,63.41
2023-02-06T09:11:49.956Z,62.93
2023-02-06T09:14:17.743Z,62.45
2023-02-06T09:16:44.614Z,62.91
2023-02-06T09:19:13.188Z,62.27
2023-02-06T09:21:39.753Z,61.97
2023-02-06T09:24:08.244Z,61.42
2023-02-06T09:26:38.928Z,60.96
2023-02-06T09:29:10.074Z,61.00
2023-02-06T09:31:39.173Z,61.00
2023-02-06T09:34:06.799Z,61.31
2023-02-06T09:36:35.188Z,61.37
2023-02-06T09:39:04.200Z,61.24
2023-02-06T09:41:35.130Z,61.13
2023-02-06T09:44:05.332Z,60.64
2023-02-06T09:46:33.832Z,60.77
2023-02-06T09:49:06.023Z,61.16
2023-02-06T09:51:44.161Z,60.69
2023-02-06T09:54:20.529Z,60.29
2023-02-06T09:56:53.221Z,61.62
2023-02-06T09:59:27.503Z,61.30
2023-02-06T10:02:08.918Z,60.58
2023-02-06T10:04:44.063Z,59.83
2023-02-06T10:07:23.276Z,59.37
2023-02-06T10:09:54.342Z,59.95
2023-02-06T10:12:27.442Z,60.89
2023-02-06T10:14:58.030Z,61.35
2023-02-06T10:17:30.108Z,62.19
2023-02-06T10:20:02.540Z,62.44
2023-02-06T10:22:38.824Z,61.96
2023-02-06T10:25:18.842Z,61.10
2023-02-06T10:27:48.981Z,60.91
2023-02-06T10:30:18.703Z,60.32
2023-02-06T10:32:53.281Z,60.12
2023-02-06T10:35:29.517Z,59.56
2023-02-06T10:38:25.816Z,58.45
2023-02-06T10:40:57.631Z,59.28
2023-02-06T10:43:34.788Z,59.49
2023-02-06T10:46:23.763Z,59.77
2023-02-06T10:48:57.533Z,59.17
2023-02-06T10:51:30.107Z,60.69
2023-02-06T10:54:01.224Z,61.56
2023-02-06T10:56:30.039Z,62.51
2023-02-06T10:58:59.872Z,62.49
2023-02-06T11:01:30.414Z,62.49
2023-02-06T11:04:02.101Z,62.84
2023-02-06T11:06:29.703Z,63.64
2023-02-06T11:08:57.866Z,64.44
2023-02-06T11:11:27.167Z,64.51
2023-02-06T11:13:58.715Z,63.87
2023-02-06T11:16:27.144Z,62.82
2023-02-06T11:18:55.979Z,63.39
2023-02-06T11:21:48.495Z,64.02
2023-02-06T11:24:19.057Z,65.54
2023-02-06T11:26:49.209Z,66.44
2023-02-06T11:29:18.282Z,66.08
2023-02-06T11:31:46.980Z,66.56
2023-02-06T11:34:24.373Z,66.05
2023-02-06T11:36:53.487Z,66.04
2023-02-06T11:39:29.449Z,66.80
2023-02-06T11:41:57.770Z,65.71
2023-02-06T11:44:25.255Z,63.94
2023-02-06T11:46:51.805Z,63.95
2023-02-06T11:49:26.209Z,59.94
2023-02-06T11:51:54.296Z,60.38
2023-02-06T11:54:27.362Z,59.41
2023-02-06T11:57:32.525Z,60.17
2023-02-06T12:00:19.970Z,59.79
2023-02-06T12:02:55.835Z,60.71
2023-02-06T12:05:37.658Z,61.16
2023-02-06T12:08:10.381Z,60.02
2023-02-06T12:10:50.710Z,60.49
2023-02-06T12:13:23.177Z,60.45
2023-02-06T12:15:54.145Z,61.24
2023-02-06T12:18:23.857Z,60.51
2023-02-06T12:20:56.599Z,61.46
2023-02-06T12:23:27.407Z,60.88
2023-02-06T12:25:56.828Z,61.95
2023-02-06T12:28:28.566Z,62.63
2023-02-06T12:30:58.876Z,63.10
2023-02-06T12:33:29.240Z,64.07
2023-02-06T12:36:01.128Z,63.78
2023-02-06T12:38:45.396Z,64.10
2023-02-06T12:41:28.206Z,64.49
2023-02-06T12:43:59.423Z,64.43
2023-02-06T12:46:28.415Z,64.44
2023-02-06T12:48:59.536Z,66.48
2023-02-06T12:51:32.455Z,66.03
2023-02-06T12:54:04.041Z,66.67
2023-02-06T12:56:35.628Z,67.04
2023-02-06T12:59:16.528Z,67.40
2023-02-06T13:01:54.261Z,68.98
2023-02-06T13:04:24.740Z,67.86
2023-02-06T13:06:55.145Z,67.69
2023-02-06T13:09:25.850Z,67.90
2023-02-06T13:11:53.066Z,67.66
2023-02-06T13:14:22.826Z,67.70
2023-02-06T13:16:54.970Z,68.40
2023-02-06T13:19:31.266Z,68.46
2023-02-06T13:22:34.041Z,67.60
2023-02-06T13:25:01.919Z,67.62
2023-02-06T13:27:37.624Z,67.79
2023-02-06T13:30:37.346Z,66.26
2023-02-06T13:33:15.604Z,67.92
2023-02-06T13:35:55.907Z,68.36
2023-02-06T13:38:29.193Z,67.68
2023-02-06T13:41:28.097Z,67.65
2023-02-06T13:43:58.389Z,67.13
2023-02-06T13:46:37.319Z,66.39
2023-02-06T13:49:33.469Z,65.64
2023-02-06T13:52:09.564Z,64.78
2023-02-06T13:55:05.397Z,65.46
2023-02-06T13:57:54.235Z,65.87
2023-02-06T14:00:23.715Z,65.89
2023-02-06T14:02:55.148Z,66.47
2023-02-06T14:05:33.524Z,66.23
2023-02-06T14:08:08.208Z,65.40
2023-02-06T14:10:50.873Z,65.52
2023-02-06T14:13:33.349Z,66.21
2023-02-06T14:16:22.167Z,66.37
2023-02-06T14:18:56.881Z,66.53
2023-02-06T14:21:33.362Z,68.13
2023-02-06T14:24:15.196Z,67.03
2023-02-06T14:26:52.829Z,67.42
2023-02-06T14:29:29.854Z,68.26
2023-02-06T14:32:27.752Z,67.98
2023-02-06T14:35:15.496Z,68.43
2023-02-06T14:37:57.670Z,68.31
2023-02-06T14:40:26.643Z,67.77
2023-02-06T14:42:56.738Z,67.12
2023-02-06T14:45:31.915Z,66.89
2023-02-06T14:48:03.232Z,66.48
2023-02-06T14:50:32.719Z,66.67
2023-02-06T14:53:07.095Z,68.76
2023-02-06T14:55:36.221Z,68.18
2023-02-06T14:58:04.296Z,68.56
2023-02-06T15:00:32.268Z,68.63
2023-02-06T15:03:08.396Z,68.23
2023-02-06T15:05:35.620Z,68.21
2023-02-06T15:08:07.853Z,68.03
2023-02-06T15:10:38.242Z,67.99
2023-02-06T15:13:05.095Z,67.94
2023-02-06T15:15:33.332Z,68.66
2023-02-06T15:18:01.522Z,68.70
2023-02-06T15:20:44.409Z,68.16
2023-02-06T15:23:22.035Z,69.17
2023-02-06T15:25:58.303Z,69.51
2023-02-06T15:28:29.000Z,69.31
2023-02-06T15:30:57.338Z,69.14
2023-02-06T15:33:25.468Z,69.16
2023-02-06T15:35:54.635Z,68.97
2023-02-06T15:38:24.697Z,68.54
2023-02-06T15:40:54.829Z,67.84
2023-02-06T15:43:24.283Z,67.82
2023-02-06T15:45:53.015Z,67.88
2023-02-06T15:48:24.095Z,67.91
2023-02-06T15:50:59.202Z,67.44
2023-02-06T15:53:33.450Z,67.81
2023-02-06T15:56:02.023Z,68.10
2023-02-06T15:58:31.854Z,68.17
2023-02-06T16:00:59.323Z,68.00
2023-02-06T16:03:29.661Z,68.09
2023-02-06T16:05:56.993Z,67.83
2023-02-06T16:08:27.704Z,68.38
2023-02-06T16:10:58.224Z,67.80
2023-02-06T16:13:28.257Z,68.28
2023-02-06T16:16:17.356Z,68.30
2023-02-06T16:18:43.928Z,68.82
2023-02-06T16:21:22.166Z,69.25
2023-02-06T16:23:53.295Z,69.90
2023-02-06T16:26:23.669Z,70.28
2023-02-06T16:28:57.756Z,70.54
2023-02-06T16:31:29.398Z,70.47
2023-02-06T16:33:58.297Z,71.90
2023-02-06T16:36:25.309Z,70.90
2023-02-06T16:39:03.654Z,70.94
2023-02-06T16:41:34.696Z,71.91
2023-02-06T16:44:03.875Z,71.96
2023-02-06T16:46:30.791Z,71.77
2023-02-06T16:48:59.870Z,72.51
2023-02-06T16:51:29.014Z,71.87
2023-02-06T16:53:55.844Z,71.46
2023-02-06T16:56:25.096Z,71.13
2023-02-06T16:58:54.894Z,70.72
2023-02-06T17:01:25.461Z,70.77
2023-02-06T17:03:53.801Z,71.94
2023-02-06T17:06:33.258Z,70.86
2023-02-06T17:09:08.250Z,70.46
2023-02-06T17:11:35.287Z,70.48
2023-02-06T17:14:03.333Z,70.86
2023-02-06T17:16:31.609Z,69.72
2023-02-06T17:19:06.119Z,71.07
2023-02-06T17:21:34.219Z,70.52
2023-02-06T17:24:01.718Z,70.64
2023-02-06T17:26:33.749Z,70.13
2023-02-06T17:29:05.866Z,69.91
2023-02-06T17:31:32.802Z,69.85
2023-02-06T17:34:02.829Z,69.63
2023-02-06T17:36:31.456Z,68.86
2023-02-06T17:38:59.703Z,69.37
2023-02-06T17:41:26.540Z,69.80
2023-02-06T17:43:53.187Z,70.08
2023-02-06T17:46:21.180Z,69.87
2023-02-06T17:48:48.110Z,69.17
2023-02-06T17:51:19.120Z,68.54
2023-02-06T17:53:45.625Z,68.21
2023-02-06T17:56:16.417Z,68.33
2023-02-06T17:58:43.134Z,68.02
2023-02-06T18:01:17.191Z,67.97
2023-02-06T18:03:47.956Z,68.30
2023-02-06T18:06:16.707Z,68.52
2023-02-06T18:08:44.822Z,68.73
2023-02-06T18:11:16.822Z,69.04
2023-02-06T18:13:50.327Z,68.15
2023-02-06T18:16:22.570Z,68.28
2023-02-06T18:18:52.536Z,68.65
2023-02-06T18:21:30.152Z,68.63
2023-02-06T18:24:01.267Z,68.88
2023-02-06T18:26:28.522Z,69.13
2023-02-06T18:29:07.010Z,69.07
2023-02-06T18:31:35.879Z,69.75
2023-02-06T18:34:05.415Z,69.76
2023-02-06T18:36:31.996Z,69.05
2023-02-06T18:39:03.292Z,69.49
2023-02-06T18:41:30.304Z,70.00
2023-02-06T18:44:00.194Z,69.79
2023-02-06T18:46:26.679Z,69.76
2023-02-06T18:48:55.550Z,69.34
2023-02-06T18:51:24.444Z,69.47
2023-02-06T18:53:51.105Z,68.60
2023-02-06T18:56:20.161Z,67.95
2023-02-06T18:58:47.029Z,67.90
2023-02-06T19:01:15.789Z,67.47
2023-02-06T19:03:42.463Z,67.18
2023-02-06T19:06:14.520Z,67.23
2023-02-06T19:08:45.095Z,68.20
2023-02-06T19:11:14.057Z,68.03
2023-02-06T19:13:40.889Z,68.17
2023-02-06T19:16:09.820Z,68.62
2023-02-06T19:18:39.629Z,68.83
2023-02-06T19:21:09.786Z,68.26
2023-02-06T19:23:40.811Z,68.74
2023-02-06T19:26:10.539Z,68.73
2023-02-06T19:28:41.717Z,69.88
2023-02-06T19:31:15.500Z,70.56
2023-02-06T19:33:45.241Z,71.01
2023-02-06T19:36:31.482Z,70.94
2023-02-06T19:39:06.269Z,71.11
2023-02-06T19:41:38.151Z,70.55
2023-02-06T19:44:18.968Z,72.19
2023-02-06T19:46:47.272Z,71.96
2023-02-06T19:49:17.944Z,71.76
2023-02-06T19:51:50.927Z,71.56
2023-02-06T19:54:23.657Z,71.27
2023-02-06T19:56:52.065Z,71.38
2023-02-06T20:03:04.623Z,71.93
2023-02-06T20:05:49.519Z,71.79
2023-02-06T20:08:19.248Z,71.61
2023-02-06T20:10:45.942Z,71.63
2023-02-06T20:13:15.816Z,72.97
2023-02-06T20:15:44.838Z,73.05
2023-02-06T20:18:20.215Z,72.46
2023-02-06T20:20:51.528Z,72.20
2023-02-06T20:23:19.268Z,72.71
2023-02-06T20:25:49.493Z,73.07
2023-02-06T20:28:18.490Z,73.50
2023-02-06T20:30:45.342Z,72.11
2023-02-06T20:33:19.238Z,72.60
2023-02-06T20:36:31.644Z,72.42
2023-02-06T20:43:03.596Z,72.25
2023-02-06T20:46:13.002Z,72.24
2023-02-06T20:55:42.051Z,72.00
2023-02-06T20:58:17.540Z,71.95
2023-02-06T21:00:49.041Z,72.39
2023-02-06T21:03:29.714Z,73.37
2023-02-06T21:05:58.116Z,72.97
2023-02-06T21:08:34.149Z,73.55
2023-02-06T21:11:08.832Z,72.93
2023-02-06T21:13:37.040Z,73.11
2023-02-06T21:16:13.551Z,73.41
2023-02-06T21:18:42.960Z,73.58
2023-02-06T21:21:12.272Z,72.54
2023-02-06T21:23:40.250Z,72.57
2023-02-06T21:26:08.020Z,72.38
2023-02-06T21:28:37.327Z,71.73
2023-02-06T21:31:06.723Z,71.94
2023-02-06T21:33:34.280Z,72.21
2023-02-06T21:36:03.539Z,71.94
2023-02-06T21:38:30.168Z,71.78
2023-02-06T21:41:27.984Z,71.62
2023-02-06T21:44:18.884Z,70.93
2023-02-06T21:50:10.706Z,72.79
2023-02-06T21:52:49.415Z,73.43
2023-02-06T21:55:16.182Z,73.18
2023-02-06T21:57:42.846Z,72.60
2023-02-06T22:00:10.730Z,72.45
2023-02-06T22:02:37.385Z,72.47
2023-02-06T22:05:04.758Z,72.18
2023-02-06T22:07:34.455Z,72.95
2023-02-06T22:10:03.429Z,73.70
2023-02-06T22:12:32.989Z,73.01
2023-02-06T22:15:02.997Z,72.17
2023-02-06T22:17:30.445Z,72.10
2023-02-06T22:19:57.047Z,72.19
2023-02-06T22:22:24.442Z,71.76
2023-02-06T22:24:52.490Z,71.91
2023-02-06T22:27:21.411Z,72.04
2023-02-06T22:29:47.945Z,73.00
2023-02-06T22:32:14.619Z,72.56
2023-02-06T22:34:41.325Z,72.97
2023-02-06T22:37:08.125Z,72.50
2023-02-06T22:39:34.711Z,73.94
2023-02-06T22:42:01.434Z,73.73
2023-02-06T22:44:31.640Z,73.95
2023-02-06T22:46:58.809Z,73.69
2023-02-06T22:49:25.663Z,74.16
2023-02-06T22:51:52.406Z,72.98
2023-02-06T22:54:19.172Z,73.83
2023-02-06T22:56:48.202Z,73.71
2023-02-06T22:59:16.950Z,73.34
2023-02-06T23:01:47.920Z,73.22
2023-02-06T23:04:17.154Z,73.26
2023-02-06T23:06:44.677Z,72.76
2023-02-06T23:09:22.180Z,73.04
2023-02-06T23:11:49.333Z,72.37
2023-02-06T23:14:17.226Z,72.60
2023-02-06T23:16:46.149Z,72.35
2023-02-06T23:19:14.626Z,72.18
2023-02-06T23:21:43.144Z,72.23
2023-02-06T23:24:11.138Z,72.09
2023-02-06T23:26:38.328Z,71.98
2023-02-06T23:29:10.406Z,72.12
2023-02-06T23:31:37.521Z,72.34
2023-02-06T23:34:05.806Z,72.48
2023-02-06T23:36:32.441Z,71.78
2023-02-06T23:39:01.054Z,71.81
2023-02-06T23:41:28.785Z,71.94
2023-02-06T23:43:57.172Z,72.24
2023-02-06T23:46:24.399Z,72.80
2023-02-06T23:48:52.088Z,72.51
2023-02-06T23:51:21.274Z,72.71
2023-02-06T23:53:48.619Z,72.66
2023-02-06T23:56:17.371Z,72.67
2023-02-06T23:58:44.865Z,72.79
